Moscow, Kansas
Current Conditions -  °F | °C
As of 11:35 PM on Wednesday 22 Oct 2014 (Local Time) from KLBL Reporting Station
Overcast Overcast  
Wind Chill: 64°   Ceiling: 1200
Heat Index: 64°   Visibility: 10mi
Dew Point: 57°   Wind: 13mph
Humidity: 77%   Direction: 200°SSW
Pressure: 30.1"   Gusts: 18mph
Location:  37.32°N, 101.21°W
Report Text: KLBL 230435Z AUTO 20011G16KT 10SM OVC012 18/14 A3010 RMK AO1
Loading
Personal Weather Stations






























Interactive Weather Map
Tropical Storm Tracking
New forecast layout! Learn more

10-Day Weather Forecast

Advertisements
Track Severe Weather on mobile